TimeMDT,TemperatureF,Dew PointF,Humidity,Sea Level PressureIn,VisibilityMPH,Wind Direction,Wind SpeedMPH,Gust SpeedMPH,PrecipitationIn,Events,Conditions,WindDirDegrees,DateUTC
12:53 AM,73.9,51.1,45,29.94,10.0,South,12.7,-,N/A,,Clear,190,2013-08-22 06:53:00
1:53 AM,73.9,51.1,45,29.92,10.0,SSW,16.1,23.0,N/A,,Clear,200,2013-08-22 07:53:00
2:53 AM,73.0,51.1,46,29.91,10.0,SSW,15.0,-,N/A,,Clear,200,2013-08-22 08:53:00
3:53 AM,68.0,51.1,55,29.93,10.0,Calm,Calm,-,N/A,,Clear,0,2013-08-22 09:53:00
4:53 AM,70.0,51.1,51,29.93,10.0,West,5.8,-,N/A,,Clear,260,2013-08-22 10:53:00
5:53 AM,66.0,51.1,59,29.94,10.0,SSW,6.9,-,N/A,,Clear,210,2013-08-22 11:53:00
6:53 AM,66.9,50.0,54,29.97,10.0,SW,4.6,-,N/A,,Clear,230,2013-08-22 12:53:00
7:53 AM,73.0,51.1,46,29.98,10.0,South,5.8,-,N/A,,Clear,190,2013-08-22 13:53:00
8:53 AM,79.0,50.0,36,29.97,10.0,SW,5.8,-,N/A,,Clear,230,2013-08-22 14:53:00
9:53 AM,82.9,48.0,29,29.97,10.0,SSW,11.5,-,N/A,,Clear,210,2013-08-22 15:53:00
10:53 AM,89.1,46.9,23,29.95,10.0,SW,10.4,-,N/A,,Clear,220,2013-08-22 16:53:00
11:53 AM,91.9,46.0,21,29.92,10.0,SSW,11.5,-,N/A,,Clear,210,2013-08-22 17:53:00
12:53 PM,93.0,45.0,19,29.90,10.0,SW,12.7,-,N/A,,Clear,230,2013-08-22 18:53:00
1:53 PM,93.0,43.0,18,29.89,10.0,Calm,Calm,-,N/A,,Clear,0,2013-08-22 19:53:00
2:53 PM,95.0,43.0,17,29.88,10.0,SSW,12.7,-,N/A,,Clear,210,2013-08-22 20:53:00
3:53 PM,93.9,39.9,15,29.86,10.0,SSE,3.5,17.3,N/A,,Clear,150,2013-08-22 21:53:00
4:53 PM,95.0,41.0,15,29.83,10.0,SSW,12.7,-,N/A,,Clear,210,2013-08-22 22:53:00
5:53 PM,93.0,42.1,17,29.84,10.0,South,12.7,18.4,N/A,,Clear,170,2013-08-22 23:53:00
6:53 PM,90.0,42.1,19,29.85,10.0,South,13.8,-,N/A,,Clear,170,2013-08-23 00:53:00
7:53 PM,84.9,39.9,20,29.86,10.0,South,12.7,-,N/A,,Clear,180,2013-08-23 01:53:00
8:53 PM,80.1,39.9,24,29.87,10.0,South,11.5,-,N/A,,Clear,190,2013-08-23 02:53:00
9:53 PM,75.9,41.0,29,29.90,10.0,South,8.1,-,N/A,,Clear,190,2013-08-23 03:53:00
10:53 PM,73.9,43.0,33,29.90,10.0,SW,5.8,-,N/A,,Clear,230,2013-08-23 04:53:00
11:53 PM,75.0,44.1,33,29.91,10.0,SW,6.9,-,N/A,,Clear,220,2013-08-23 05:53:00